Private Wetterstation Wechselburg
Wetterdaten: Mittwoch, 07.07.2021
Datum Zeit Temp. +2m Bodentemp. Temp.+5cm Temp. Wind Windchill X Diff Temp. Feuchte +2m Feuchte +5cm Luftdruck Regen Wind Richtung Richtung Sonnenschein Taupunkt Windchill Windben
07.07.2021 00:00 18,4 C 20,4 C 18,3 C 18,4 C 18,4 C 0,0 C 87 % 90 % 1012,9 hPa 0,0 l/m 0,0 km/h (0 Bft) S 180 0 min 16,2 C 18,4 C 0,0 km/h (0 Bft)
07.07.2021 00:05 18,5 C 20,3 C 18,3 C 18,5 C 18,4 C 0,0 C 87 % 91 % 1012,9 hPa 0,7 l/m 0,0 km/h (0 Bft) S 180 0 min 16,3 C 18,4 C 0,0 km/h (0 Bft)
07.07.2021 00:10 18,4 C 20,3 C 18,2 C 18,4 C 18,4 C 0,0 C 87 % 90 % 1012,9 hPa 0,0 l/m 0,0 km/h (0 Bft) S 180 0 min 16,2 C 18,4 C 0,0 km/h (0 Bft)
07.07.2021 00:15 18,3 C 20,3 C 18,2 C 18,3 C 18,3 C 0,0 C 87 % 90 % 1013,4 hPa 0,0 l/m 0,0 km/h (0 Bft) S 180 0 min 16,1 C 18,3 C 0,0 km/h (0 Bft)
07.07.2021 00:20 18,2 C 20,3 C 18,1 C 18,2 C 18,2 C 0,0 C 87 % 90 % 1013,4 hPa 0,0 l/m 0,0 km/h (0 Bft) S 180 0 min 16,0 C 18,2 C 0,0 km/h (0 Bft)
07.07.2021 00:25 18,3 C 20,3 C 18,1 C 18,3 C 18,2 C 0,0 C 87 % 90 % 1013,4 hPa 0,0 l/m 0,0 km/h (0 Bft) S 180 0 min 16,1 C 18,2 C 0,0 km/h (0 Bft)
07.07.2021 00:30 18,3 C 20,3 C 18,1 C 18,3 C 18,2 C 0,0 C 87 % 90 % 1013,4 hPa 0,0 l/m 0,0 km/h (0 Bft) S 180 0 min 16,1 C 18,2 C 0,0 km/h (0 Bft)
07.07.2021 00:35 18,1 C 20,3 C 18,1 C 18,2 C 18,2 C 0,1 C 87 % 90 % 1013,8 hPa 0,0 l/m 0,0 km/h (0 Bft) S 180 0 min 15,9 C 18,2 C 0,0 km/h (0 Bft)
07.07.2021 00:40 18,1 C 20,3 C 18,1 C 18,2 C 18,2 C 0,1 C 87 % 90 % 1013,8 hPa 0,7 l/m 0,0 km/h (0 Bft) S 180 0 min 15,9 C 18,2 C 0,0 km/h (0 Bft)
07.07.2021 00:45 18,0 C 20,3 C 18,1 C 18,2 C 18,2 C 0,2 C 87 % 90 % 1013,8 hPa 0,0 l/m 0,0 km/h (0 Bft) S 180 0 min 15,8 C 18,2 C 0,0 km/h (0 Bft)
07.07.2021 00:50 18,1 C 20,3 C 18,1 C 18,2 C 18,2 C 0,1 C 87 % 90 % 1013,8 hPa 0,0 l/m 0,0 km/h (0 Bft) S 180 0 min 15,9 C 18,2 C 0,0 km/h (0 Bft)
07.07.2021 00:55 18,1 C 20,3 C 18,1 C 18,2 C 18,2 C 0,1 C 87 % 90 % 1013,6 hPa 0,0 l/m 0,0 km/h (0 Bft) S 180 0 min 15,9 C 18,2 C 0,0 km/h (0 Bft)
07.07.2021 01:00 18,0 C 20,3 C 18,1 C 18,2 C 18,2 C 0,2 C 87 % 90 % 1013,6 hPa 0,0 l/m 0,0 km/h (0 Bft) S 180 0 min 15,8 C 18,2 C 0,0 km/h (0 Bft)
07.07.2021 01:05 17,9 C 20,3 C 18,0 C 18,2 C 18,2 C 0,3 C 87 % 90 % 1013,6 hPa 0,0 l/m 0,0 km/h (0 Bft) S 180 0 min 15,7 C 18,2 C 0,0 km/h (0 Bft)
07.07.2021 01:10 17,9 C 20,3 C 18,0 C 18,2 C 18,2 C 0,3 C 87 % 90 % 1013,6 hPa 0,7 l/m 0,0 km/h (0 Bft) S 180 0 min 15,7 C 18,2 C 0,0 km/h (0 Bft)
07.07.2021 01:15 17,8 C 20,3 C 18,1 C 18,2 C 18,2 C 0,4 C 87 % 90 % 1014,1 hPa 0,0 l/m 0,0 km/h (0 Bft) S 180 0 min 15,6 C 18,2 C 0,0 km/h (0 Bft)
07.07.2021 01:20 17,8 C 20,3 C 18,0 C 18,2 C 18,2 C 0,4 C 87 % 90 % 1014,1 hPa 0,7 l/m 0,0 km/h (0 Bft) S 180 0 min 15,6 C 18,2 C 0,0 km/h (0 Bft)
07.07.2021 01:25 17,8 C 20,3 C 18,0 C 18,2 C 18,2 C 0,4 C 87 % 90 % 1014,1 hPa 0,0 l/m 0,0 km/h (0 Bft) W 270 0 min 15,6 C 18,2 C 0,0 km/h (0 Bft)
07.07.2021 01:30 17,7 C 20,3 C 18,0 C 18,1 C 18,1 C 0,4 C 87 % 90 % 1014,1 hPa 0,0 l/m 0,0 km/h (0 Bft) W 270 0 min 15,5 C 18,1 C 0,0 km/h (0 Bft)
07.07.2021 01:35 17,7 C 20,3 C 17,9 C 18,0 C 18,0 C 0,3 C 87 % 90 % 1013,9 hPa 0,7 l/m 0,0 km/h (0 Bft) W-SW 247 0 min 15,5 C 18,0 C 0,0 km/h (0 Bft)
07.07.2021 01:40 17,6 C 20,3 C 17,8 C 18,0 C 18,0 C 0,4 C 87 % 90 % 1013,9 hPa 0,0 l/m 0,2 km/h (0 Bft) W 270 0 min 15,4 C 18,0 C 0,0 km/h (0 Bft)
07.07.2021 01:45 17,5 C 20,3 C 17,7 C 17,8 C 17,8 C 0,3 C 87 % 91 % 1013,9 hPa 0,0 l/m 0,2 km/h (0 Bft) W-NW 292 0 min 15,3 C 17,8 C 3,4 km/h (1 Bft)
07.07.2021 01:50 17,5 C 20,3 C 17,6 C 17,8 C 17,8 C 0,3 C 87 % 91 % 1013,9 hPa 0,7 l/m 0,0 km/h (0 Bft) W-NW 292 0 min 15,3 C 17,8 C 0,0 km/h (0 Bft)
07.07.2021 01:55 17,5 C 20,3 C 17,5 C 17,7 C 17,7 C 0,2 C 87 % 91 % 1013,5 hPa 0,0 l/m 0,0 km/h (0 Bft) W 270 0 min 15,3 C 17,7 C 0,0 km/h (0 Bft)
07.07.2021 02:00 17,3 C 20,3 C 17,5 C 17,6 C 17,6 C 0,3 C 87 % 91 % 1013,5 hPa 0,0 l/m 0,0 km/h (0 Bft) W-NW 292 0 min 15,1 C 17,6 C 0,0 km/h (0 Bft)
07.07.2021 02:05 17,2 C 20,3 C 17,5 C 17,5 C 17,5 C 0,3 C 88 % 91 % 1013,5 hPa 0,0 l/m 0,0 km/h (0 Bft) W-NW 292 0 min 15,2 C 17,5 C 0,0 km/h (0 Bft)
07.07.2021 02:10 17,3 C 20,3 C 17,4 C 17,4 C 17,4 C 0,1 C 88 % 91 % 1013,5 hPa 0,0 l/m 0,0 km/h (0 Bft) W-NW 292 0 min 15,3 C 17,4 C 0,0 km/h (0 Bft)
07.07.2021 02:15 17,1 C 20,4 C 17,3 C 17,3 C 17,3 C 0,2 C 88 % 91 % 1013,8 hPa 0,0 l/m 0,0 km/h (0 Bft) W-NW 292 0 min 15,1 C 17,3 C 0,0 km/h (0 Bft)
07.07.2021 02:20 17,0 C 20,4 C 17,3 C 17,3 C 17,3 C 0,3 C 88 % 91 % 1013,8 hPa 0,0 l/m 0,0 km/h (0 Bft) W-NW 292 0 min 15,0 C 17,3 C 0,0 km/h (0 Bft)
07.07.2021 02:25 17,0 C 20,4 C 17,2 C 17,3 C 17,3 C 0,3 C 88 % 90 % 1013,8 hPa 0,0 l/m 0,0 km/h (0 Bft) W-NW 292 0 min 15,0 C 17,3 C 0,0 km/h (0 Bft)
07.07.2021 02:30 16,9 C 20,4 C 17,2 C 17,3 C 17,3 C 0,4 C 87 % 90 % 1013,8 hPa 0,0 l/m 0,0 km/h (0 Bft) W-NW 292 0 min 14,7 C 17,3 C 0,0 km/h (0 Bft)
07.07.2021 02:35 16,8 C 20,4 C 17,2 C 17,3 C 17,3 C 0,5 C 87 % 90 % 1014,2 hPa 0,7 l/m 0,0 km/h (0 Bft) NW 315 0 min 14,6 C 17,3 C 0,0 km/h (0 Bft)
07.07.2021 02:40 16,8 C 20,4 C 17,2 C 17,3 C 17,3 C 0,5 C 87 % 90 % 1014,2 hPa 0,0 l/m 0,0 km/h (0 Bft) NW 315 0 min 14,6 C 17,3 C 0,0 km/h (0 Bft)
07.07.2021 02:45 16,8 C 20,4 C 17,2 C 17,3 C 17,3 C 0,5 C 88 % 90 % 1014,2 hPa 0,0 l/m 0,0 km/h (0 Bft) NW 315 0 min 14,8 C 17,3 C 0,0 km/h (0 Bft)
07.07.2021 02:50 16,7 C 20,4 C 17,2 C 17,3 C 17,3 C 0,6 C 88 % 90 % 1014,2 hPa 0,0 l/m 0,0 km/h (0 Bft) NW 315 0 min 14,7 C 17,3 C 0,0 km/h (0 Bft)
07.07.2021 02:55 16,7 C 20,4 C 17,3 C 17,3 C 17,3 C 0,6 C 88 % 90 % 1013,8 hPa 0,0 l/m 0,0 km/h (0 Bft) W-NW 292 0 min 14,7 C 17,3 C 0,0 km/h (0 Bft)
07.07.2021 03:00 16,7 C 20,4 C 17,2 C 17,4 C 17,4 C 0,7 C 88 % 90 % 1013,8 hPa 0,7 l/m 0,0 km/h (0 Bft) NW 315 0 min 14,7 C 17,4 C 0,0 km/h (0 Bft)
07.07.2021 03:05 16,6 C 20,4 C 17,2 C 17,3 C 17,3 C 0,7 C 88 % 90 % 1013,8 hPa 0,0 l/m 0,0 km/h (0 Bft) NW 315 0 min 14,6 C 17,3 C 0,0 km/h (0 Bft)
07.07.2021 03:10 16,7 C 20,3 C 17,1 C 17,2 C 17,2 C 0,5 C 88 % 90 % 1013,8 hPa 0,7 l/m 0,2 km/h (0 Bft) W 270 0 min 14,7 C 17,2 C 0,0 km/h (0 Bft)
07.07.2021 03:15 16,5 C 20,3 C 16,9 C 16,9 C 16,9 C 0,4 C 88 % 90 % 1013,9 hPa 0,0 l/m 0,3 km/h (0 Bft) O-SO 112 0 min 14,5 C 16,9 C 3,7 km/h (1 Bft)
07.07.2021 03:20 16,5 C 20,3 C 16,5 C 16,6 C 16,6 C 0,1 C 88 % 91 % 1013,9 hPa 0,0 l/m 0,3 km/h (0 Bft) S-SO 157 0 min 14,5 C 16,6 C 0,0 km/h (0 Bft)
07.07.2021 03:25 16,3 C 20,3 C 16,0 C 16,2 C 16,0 C 0,0 C 88 % 91 % 1013,9 hPa 0,0 l/m 0,0 km/h (0 Bft) S 180 0 min 14,3 C 16,0 C 0,0 km/h (0 Bft)
07.07.2021 03:30 16,1 C 20,2 C 16,0 C 16,0 C 15,9 C 0,0 C 88 % 91 % 1013,9 hPa 0,0 l/m 0,0 km/h (0 Bft) S 180 0 min 14,1 C 15,9 C 0,0 km/h (0 Bft)
07.07.2021 03:35 15,9 C 20,3 C 15,9 C 15,8 C 15,6 C 0,0 C 88 % 91 % 1013,9 hPa 0,0 l/m 0,0 km/h (0 Bft) S 180 0 min 13,9 C 15,6 C 0,0 km/h (0 Bft)
07.07.2021 03:40 15,8 C 20,3 C 15,8 C 15,7 C 15,6 C 0,0 C 88 % 91 % 1013,9 hPa 0,0 l/m 0,0 km/h (0 Bft) S 180 0 min 13,8 C 15,6 C 0,0 km/h (0 Bft)
07.07.2021 03:45 15,6 C 20,3 C 15,7 C 15,6 C 15,5 C 0,0 C 88 % 91 % 1013,9 hPa 0,0 l/m 0,0 km/h (0 Bft) S 180 0 min 13,6 C 15,5 C 0,0 km/h (0 Bft)
07.07.2021 03:50 15,5 C 20,3 C 15,7 C 15,5 C 15,5 C 0,0 C 88 % 91 % 1013,9 hPa 0,0 l/m 0,0 km/h (0 Bft) S 180 0 min 13,5 C 15,5 C 0,0 km/h (0 Bft)
07.07.2021 03:55 15,4 C 20,3 C 15,5 C 15,4 C 15,4 C 0,0 C 87 % 91 % 1013,7 hPa 0,0 l/m 0,0 km/h (0 Bft) O-SO 112 0 min 13,2 C 15,4 C 0,0 km/h (0 Bft)
07.07.2021 04:00 15,3 C 20,3 C 15,4 C 15,3 C 15,3 C 0,0 C 87 % 91 % 1013,7 hPa 0,0 l/m 0,0 km/h (0 Bft) O-SO 112 0 min 13,1 C 15,3 C 0,0 km/h (0 Bft)
07.07.2021 04:05 15,2 C 20,3 C 15,4 C 15,3 C 15,3 C 0,1 C 87 % 91 % 1013,7 hPa 0,7 l/m 0,0 km/h (0 Bft) O-SO 112 0 min 13,0 C 15,3 C 0,0 km/h (0 Bft)
07.07.2021 04:10 15,1 C 20,3 C 15,3 C 15,2 C 15,2 C 0,1 C 87 % 91 % 1013,7 hPa 0,0 l/m 0,0 km/h (0 Bft) O-SO 112 0 min 13,0 C 15,2 C 0,0 km/h (0 Bft)
07.07.2021 04:15 14,9 C 20,3 C 15,3 C 15,2 C 15,2 C 0,3 C 88 % 91 % 1013,6 hPa 0,0 l/m 0,0 km/h (0 Bft) O-SO 112 0 min 12,9 C 15,2 C 0,0 km/h (0 Bft)
07.07.2021 04:20 14,8 C 20,3 C 15,3 C 15,2 C 15,2 C 0,4 C 88 % 91 % 1013,6 hPa 0,0 l/m 0,0 km/h (0 Bft) O-SO 112 0 min 12,8 C 15,2 C 0,0 km/h (0 Bft)
07.07.2021 04:25 14,7 C 20,3 C 15,3 C 15,2 C 15,2 C 0,5 C 88 % 91 % 1013,6 hPa 0,0 l/m 0,0 km/h (0 Bft) O-SO 112 0 min 12,7 C 15,2 C 0,0 km/h (0 Bft)
07.07.2021 04:30 14,7 C 20,3 C 15,3 C 15,2 C 15,2 C 0,5 C 88 % 91 % 1013,6 hPa 0,0 l/m 0,0 km/h (0 Bft) O-SO 112 0 min 12,7 C 15,2 C 0,0 km/h (0 Bft)
07.07.2021 04:35 14,7 C 20,3 C 15,4 C 15,3 C 15,3 C 0,6 C 88 % 90 % 1013,4 hPa 0,0 l/m 0,0 km/h (0 Bft) O-SO 112 0 min 12,7 C 15,3 C 0,0 km/h (0 Bft)
07.07.2021 04:40 14,7 C 20,2 C 15,5 C 15,4 C 15,4 C 0,7 C 88 % 90 % 1013,4 hPa 0,7 l/m 0,0 km/h (0 Bft) O-SO 112 0 min 12,7 C 15,4 C 0,0 km/h (0 Bft)
07.07.2021 04:45 14,7 C 20,3 C 15,6 C 15,5 C 15,5 C 0,8 C 88 % 91 % 1013,4 hPa 0,0 l/m 0,0 km/h (0 Bft) O-SO 112 0 min 12,7 C 15,5 C 0,0 km/h (0 Bft)
07.07.2021 04:50 14,7 C 20,3 C 15,6 C 15,5 C 15,5 C 0,8 C 88 % 91 % 1013,4 hPa 0,0 l/m 0,0 km/h (0 Bft) O-SO 112 0 min 12,7 C 15,5 C 0,0 km/h (0 Bft)
07.07.2021 04:55 14,7 C 20,2 C 15,7 C 15,6 C 15,6 C 0,9 C 88 % 91 % 1013,8 hPa 0,7 l/m 0,0 km/h (0 Bft) O-SO 112 0 min 12,7 C 15,6 C 0,0 km/h (0 Bft)
07.07.2021 05:00 14,7 C 20,2 C 15,7 C 15,7 C 15,7 C 1,0 C 88 % 91 % 1013,8 hPa 0,0 l/m 0,0 km/h (0 Bft) S-SO 157 0 min 12,7 C 15,7 C 0,0 km/h (0 Bft)
07.07.2021 05:05 14,7 C 20,2 C 15,6 C 15,6 C 15,6 C 0,9 C 88 % 91 % 1013,8 hPa 0,0 l/m 0,0 km/h (0 Bft) SO 135 0 min 12,7 C 15,6 C 0,0 km/h (0 Bft)
07.07.2021 05:10 14,7 C 20,2 C 15,4 C 15,5 C 15,5 C 0,8 C 88 % 90 % 1013,8 hPa 0,0 l/m 0,0 km/h (0 Bft) SO 135 0 min 12,7 C 15,5 C 0,0 km/h (0 Bft)
07.07.2021 05:15 14,5 C 20,2 C 15,3 C 15,3 C 15,3 C 0,8 C 88 % 91 % 1014,0 hPa 0,7 l/m 0,0 km/h (0 Bft) SO 135 0 min 12,5 C 15,3 C 0,0 km/h (0 Bft)
07.07.2021 05:20 14,5 C 20,2 C 15,2 C 15,3 C 15,3 C 0,8 C 88 % 91 % 1014,0 hPa 0,0 l/m 0,0 km/h (0 Bft) SO 135 5 min 12,5 C 15,3 C 0,0 km/h (0 Bft)
07.07.2021 05:25 14,4 C 20,1 C 15,1 C 15,2 C 15,2 C 0,8 C 88 % 91 % 1014,0 hPa 0,0 l/m 0,0 km/h (0 Bft) S-SO 157 5 min 12,4 C 15,2 C 0,0 km/h (0 Bft)
07.07.2021 05:30 14,4 C 20,1 C 15,1 C 15,0 C 15,0 C 0,6 C 88 % 91 % 1014,0 hPa 0,7 l/m 0,0 km/h (0 Bft) S-SO 157 5 min 12,4 C 15,0 C 0,0 km/h (0 Bft)
07.07.2021 05:35 14,4 C 20,2 C 14,9 C 14,9 C 14,9 C 0,5 C 88 % 91 % 1014,4 hPa 0,0 l/m 0,0 km/h (0 Bft) S-SO 157 0 min 12,4 C 14,9 C 0,0 km/h (0 Bft)
07.07.2021 05:40 14,3 C 20,2 C 14,8 C 14,9 C 14,9 C 0,6 C 88 % 91 % 1014,4 hPa 0,0 l/m 0,0 km/h (0 Bft) S-SO 157 0 min 12,3 C 14,9 C 0,0 km/h (0 Bft)
07.07.2021 05:45 14,3 C 20,1 C 14,6 C 14,7 C 14,7 C 0,4 C 88 % 91 % 1014,4 hPa 0,0 l/m 0,0 km/h (0 Bft) O-SO 112 0 min 12,3 C 14,7 C 0,0 km/h (0 Bft)
07.07.2021 05:50 14,1 C 20,1 C 14,6 C 14,5 C 14,5 C 0,4 C 88 % 91 % 1014,4 hPa 0,7 l/m 0,0 km/h (0 Bft) O-SO 112 0 min 12,1 C 14,5 C 0,0 km/h (0 Bft)
07.07.2021 05:55 14,0 C 20,1 C 14,6 C 14,5 C 14,5 C 0,5 C 88 % 91 % 1014,7 hPa 0,0 l/m 0,0 km/h (0 Bft) S-SO 157 0 min 12,0 C 14,5 C 0,0 km/h (0 Bft)
07.07.2021 06:00 14,0 C 20,1 C 14,7 C 14,5 C 14,5 C 0,5 C 88 % 91 % 1014,7 hPa 0,0 l/m 0,0 km/h (0 Bft) S 180 0 min 12,0 C 14,5 C 0,0 km/h (0 Bft)
07.07.2021 06:05 13,9 C 20,1 C 14,7 C 14,6 C 14,6 C 0,7 C 88 % 91 % 1014,7 hPa 0,7 l/m 0,0 km/h (0 Bft) S 180 0 min 11,9 C 14,6 C 0,0 km/h (0 Bft)
07.07.2021 06:10 13,9 C 20,1 C 14,7 C 14,6 C 14,6 C 0,7 C 88 % 91 % 1014,7 hPa 0,0 l/m 0,0 km/h (0 Bft) S 180 0 min 11,9 C 14,6 C 0,0 km/h (0 Bft)
07.07.2021 06:15 13,9 C 20,0 C 14,7 C 14,6 C 14,6 C 0,7 C 88 % 91 % 1014,9 hPa 0,7 l/m 0,0 km/h (0 Bft) S 180 0 min 11,9 C 14,6 C 0,0 km/h (0 Bft)
07.07.2021 06:20 13,9 C 20,0 C 14,6 C 14,6 C 14,6 C 0,7 C 88 % 91 % 1014,9 hPa 0,0 l/m 0,0 km/h (0 Bft) S 180 0 min 11,9 C 14,6 C 0,0 km/h (0 Bft)
07.07.2021 06:25 13,8 C 20,0 C 14,6 C 14,5 C 14,5 C 0,7 C 88 % 91 % 1014,9 hPa 0,7 l/m 0,0 km/h (0 Bft) S 180 0 min 11,8 C 14,5 C 0,0 km/h (0 Bft)
07.07.2021 06:30 13,7 C 20,0 C 14,6 C 14,5 C 14,5 C 0,8 C 88 % 91 % 1014,9 hPa 0,0 l/m 0,0 km/h (0 Bft) O-SO 112 0 min 11,7 C 14,5 C 0,0 km/h (0 Bft)
07.07.2021 06:35 13,6 C 20,0 C 14,5 C 14,5 C 14,5 C 0,9 C 88 % 91 % 1015,2 hPa 0,0 l/m 0,0 km/h (0 Bft) O-SO 112 0 min 11,6 C 14,5 C 0,0 km/h (0 Bft)
07.07.2021 06:40 13,6 C 20,0 C 14,5 C 14,6 C 14,6 C 1,0 C 88 % 91 % 1015,2 hPa 0,0 l/m 0,0 km/h (0 Bft) O-SO 112 0 min 11,6 C 14,6 C 0,0 km/h (0 Bft)
07.07.2021 06:45 13,6 C 20,1 C 14,6 C 14,7 C 14,7 C 1,1 C 88 % 91 % 1015,2 hPa 0,7 l/m 0,2 km/h (0 Bft) W 270 0 min 11,6 C 14,7 C 0,0 km/h (0 Bft)
07.07.2021 06:50 13,7 C 20,4 C 14,6 C 14,7 C 14,7 C 1,0 C 88 % 91 % 1015,2 hPa 0,0 l/m 0,0 km/h (0 Bft) W 270 0 min 11,7 C 14,7 C 0,0 km/h (0 Bft)
07.07.2021 06:55 13,6 C 20,4 C 14,6 C 14,6 C 14,6 C 1,0 C 88 % 91 % 1015,8 hPa 0,0 l/m 0,0 km/h (0 Bft) W 270 0 min 11,6 C 14,6 C 0,0 km/h (0 Bft)
07.07.2021 07:00 13,6 C 20,4 C 14,6 C 14,6 C 14,6 C 1,0 C 88 % 91 % 1015,8 hPa 0,0 l/m 0,0 km/h (0 Bft) W 270 0 min 11,6 C 14,6 C 0,0 km/h (0 Bft)
07.07.2021 07:05 13,6 C 20,4 C 14,5 C 14,7 C 14,7 C 1,1 C 88 % 91 % 1015,8 hPa 0,0 l/m 0,0 km/h (0 Bft) W 270 0 min 11,6 C 14,7 C 0,0 km/h (0 Bft)
07.07.2021 07:10 13,6 C 20,4 C 14,5 C 14,7 C 14,7 C 1,1 C 88 % 90 % 1015,8 hPa 0,7 l/m 0,0 km/h (0 Bft) W 270 0 min 11,6 C 14,7 C 0,0 km/h (0 Bft)
07.07.2021 07:15 13,5 C 20,4 C 14,7 C 14,6 C 14,6 C 1,1 C 88 % 90 % 1016,0 hPa 0,0 l/m 0,0 km/h (0 Bft) W 270 0 min 11,6 C 14,6 C 0,0 km/h (0 Bft)
07.07.2021 07:20 13,5 C 20,4 C 14,7 C 14,7 C 14,7 C 1,2 C 88 % 90 % 1016,0 hPa 0,0 l/m 0,0 km/h (0 Bft) W 270 0 min 11,6 C 14,7 C 0,0 km/h (0 Bft)
07.07.2021 07:25 13,5 C 20,4 C 14,8 C 14,7 C 14,7 C 1,2 C 88 % 90 % 1016,0 hPa 0,0 l/m 0,0 km/h (0 Bft) W 270 0 min 11,6 C 14,7 C 0,0 km/h (0 Bft)
07.07.2021 07:30 13,6 C 20,4 C 14,7 C 14,7 C 14,7 C 1,1 C 88 % 90 % 1016,0 hPa 0,0 l/m 0,0 km/h (0 Bft) W 270 0 min 11,6 C 14,7 C 0,0 km/h (0 Bft)
07.07.2021 07:35 13,6 C 20,4 C 14,6 C 14,7 C 14,7 C 1,1 C 88 % 90 % 1016,1 hPa 0,7 l/m 0,0 km/h (0 Bft) W 270 0 min 11,6 C 14,7 C 0,0 km/h (0 Bft)
07.07.2021 07:40 13,6 C 20,4 C 14,6 C 14,8 C 14,8 C 1,2 C 88 % 90 % 1016,1 hPa 0,0 l/m 0,0 km/h (0 Bft) W 270 0 min 11,6 C 14,8 C 0,0 km/h (0 Bft)
07.07.2021 07:45 13,5 C 20,4 C 14,7 C 14,7 C 14,7 C 1,2 C 88 % 90 % 1016,1 hPa 0,0 l/m 0,0 km/h (0 Bft) W 270 0 min 11,6 C 14,7 C 0,0 km/h (0 Bft)
07.07.2021 07:50 13,5 C 20,4 C 14,6 C 14,8 C 14,8 C 1,3 C 88 % 91 % 1016,1 hPa 0,0 l/m 0,0 km/h (0 Bft) W 270 0 min 11,6 C 14,8 C 0,0 km/h (0 Bft)
07.07.2021 07:55 13,5 C 20,4 C 14,6 C 14,9 C 14,9 C 1,4 C 88 % 90 % 1015,9 hPa 0,0 l/m 0,0 km/h (0 Bft) W 270 0 min 11,6 C 14,9 C 0,0 km/h (0 Bft)
07.07.2021 08:00 13,6 C 20,4 C 14,7 C 15,0 C 15,0 C 1,4 C 88 % 90 % 1015,9 hPa 0,7 l/m 0,0 km/h (0 Bft) W 270 0 min 11,6 C 15,0 C 0,0 km/h (0 Bft)
07.07.2021 08:05 13,5 C 20,4 C 14,7 C 15,0 C 15,0 C 1,5 C 88 % 90 % 1015,9 hPa 0,0 l/m 0,0 km/h (0 Bft) W 270 0 min 11,6 C 15,0 C 0,0 km/h (0 Bft)
07.07.2021 08:10 13,5 C 20,4 C 14,7 C 14,9 C 14,9 C 1,4 C 88 % 91 % 1015,9 hPa 0,0 l/m 0,0 km/h (0 Bft) W 270 0 min 11,6 C 14,9 C 0,0 km/h (0 Bft)
07.07.2021 08:15 13,5 C 20,4 C 14,6 C 14,9 C 14,9 C 1,4 C 88 % 90 % 1015,9 hPa 0,0 l/m 0,2 km/h (0 Bft) W 270 0 min 11,6 C 14,9 C 0,0 km/h (0 Bft)
07.07.2021 08:20 13,4 C 20,4 C 14,7 C 15,0 C 15,0 C 1,6 C 88 % 90 % 1015,9 hPa 0,0 l/m 0,2 km/h (0 Bft) SO 135 0 min 11,5 C 15,0 C 0,0 km/h (0 Bft)
07.07.2021 08:25 13,5 C 20,4 C 14,7 C 15,0 C 15,0 C 1,5 C 88 % 90 % 1015,9 hPa 0,0 l/m 0,5 km/h (0 Bft) O-NO 67 0 min 11,6 C 15,0 C 2,7 km/h (1 Bft)
07.07.2021 08:30 13,4 C 20,4 C 14,7 C 15,0 C 15,0 C 1,6 C 88 % 91 % 1015,9 hPa 0,0 l/m 1,1 km/h (1 Bft) O-NO 67 0 min 11,5 C 15,0 C 2,6 km/h (1 Bft)
07.07.2021 08:35 13,5 C 20,4 C 14,9 C 15,0 C 15,0 C 1,5 C 88 % 90 % 1015,9 hPa 0,0 l/m 2,1 km/h (1 Bft) O-NO 67 0 min 11,6 C 15,0 C 2,3 km/h (1 Bft)
07.07.2021 08:40 13,5 C 20,4 C 14,9 C 15,0 C 15,0 C 1,5 C 88 % 90 % 1015,9 hPa 0,0 l/m 1,6 km/h (1 Bft) NO 45 0 min 11,6 C 15,0 C 0,0 km/h (0 Bft)
07.07.2021 08:45 13,5 C 20,4 C 14,8 C 15,0 C 15,0 C 1,5 C 88 % 90 % 1015,9 hPa 0,0 l/m 0,3 km/h (0 Bft) O-NO 67 0 min 11,6 C 15,0 C 0,0 km/h (0 Bft)
07.07.2021 08:50 13,6 C 20,4 C 14,8 C 15,1 C 15,1 C 1,5 C 88 % 90 % 1015,9 hPa 0,0 l/m 0,2 km/h (0 Bft) NO 45 0 min 11,6 C 15,1 C 0,0 km/h (0 Bft)
07.07.2021 08:55 13,6 C 20,4 C 14,9 C 15,2 C 15,2 C 1,6 C 88 % 90 % 1016,4 hPa 0,0 l/m 0,0 km/h (0 Bft) N-NO 22 0 min 11,6 C 15,2 C 0,0 km/h (0 Bft)
07.07.2021 09:00 13,7 C 20,4 C 15,0 C 15,3 C 15,3 C 1,6 C 89 % 90 % 1016,4 hPa 0,7 l/m 0,0 km/h (0 Bft) N-NO 22 0 min 11,9 C 15,3 C 0,0 km/h (0 Bft)
07.07.2021 09:05 13,8 C 20,4 C 15,0 C 15,3 C 15,3 C 1,5 C 89 % 90 % 1016,4 hPa 0,0 l/m 0,0 km/h (0 Bft) O-NO 67 0 min 12,0 C 15,3 C 0,0 km/h (0 Bft)
07.07.2021 09:10 13,9 C 20,4 C 15,0 C 15,3 C 15,3 C 1,4 C 89 % 90 % 1016,4 hPa 0,0 l/m 0,0 km/h (0 Bft) O-NO 67 0 min 12,1 C 15,3 C 0,0 km/h (0 Bft)
07.07.2021 09:15 13,9 C 20,4 C 15,0 C 15,3 C 15,3 C 1,4 C 89 % 90 % 1016,2 hPa 0,0 l/m 0,0 km/h (0 Bft) NO 45 0 min 12,1 C 15,3 C 0,0 km/h (0 Bft)
07.07.2021 09:20 13,8 C 20,4 C 14,9 C 15,2 C 15,2 C 1,4 C 89 % 90 % 1016,2 hPa 0,0 l/m 0,0 km/h (0 Bft) NO 45 0 min 12,0 C 15,2 C 0,0 km/h (0 Bft)
07.07.2021 09:25 13,9 C 20,4 C 14,9 C 15,2 C 15,2 C 1,3 C 89 % 90 % 1016,2 hPa 0,0 l/m 0,0 km/h (0 Bft) O-NO 67 0 min 12,1 C 15,2 C 0,0 km/h (0 Bft)
07.07.2021 09:30 13,9 C 20,4 C 14,9 C 15,2 C 15,2 C 1,3 C 89 % 90 % 1016,2 hPa 0,0 l/m 0,0 km/h (0 Bft) O-NO 67 0 min 12,1 C 15,2 C 0,0 km/h (0 Bft)
07.07.2021 09:35 13,8 C 20,4 C 15,0 C 15,2 C 15,2 C 1,4 C 88 % 90 % 1016,1 hPa 0,0 l/m 0,0 km/h (0 Bft) N-NO 22 0 min 11,8 C 15,2 C 0,0 km/h (0 Bft)
07.07.2021 09:40 13,9 C 20,5 C 15,0 C 15,3 C 15,3 C 1,4 C 89 % 90 % 1016,1 hPa 0,0 l/m 0,0 km/h (0 Bft) N-NO 22 0 min 12,1 C 15,3 C 0,0 km/h (0 Bft)
07.07.2021 09:45 14,0 C 20,5 C 15,1 C 15,4 C 15,4 C 1,4 C 89 % 90 % 1016,1 hPa 0,0 l/m 0,0 km/h (0 Bft) N-NO 22 0 min 12,2 C 15,4 C 0,0 km/h (0 Bft)
07.07.2021 09:50 14,1 C 20,4 C 15,1 C 15,5 C 15,5 C 1,4 C 89 % 90 % 1016,1 hPa 0,0 l/m 0,0 km/h (0 Bft) N-NO 22 0 min 12,3 C 15,5 C 0,0 km/h (0 Bft)
07.07.2021 09:55 14,0 C 20,4 C 15,1 C 15,5 C 15,5 C 1,5 C 89 % 90 % 1016,6 hPa 0,0 l/m 0,0 km/h (0 Bft) N-NO 22 0 min 12,2 C 15,5 C 0,0 km/h (0 Bft)
07.07.2021 10:00 14,1 C 20,4 C 15,1 C 15,5 C 15,5 C 1,4 C 89 % 90 % 1016,6 hPa 0,0 l/m 0,0 km/h (0 Bft) NO 45 0 min 12,3 C 15,5 C 0,0 km/h (0 Bft)
07.07.2021 10:05 14,2 C 20,4 C 15,2 C 15,6 C 15,6 C 1,4 C 89 % 90 % 1016,6 hPa 0,0 l/m 0,0 km/h (0 Bft) O 90 0 min 12,4 C 15,6 C 0,0 km/h (0 Bft)
07.07.2021 10:10 14,3 C 20,4 C 15,2 C 15,7 C 15,7 C 1,4 C 89 % 90 % 1016,6 hPa 0,0 l/m 0,0 km/h (0 Bft) O 90 0 min 12,5 C 15,7 C 0,0 km/h (0 Bft)
07.07.2021 10:15 14,3 C 20,5 C 15,4 C 15,8 C 15,8 C 1,5 C 89 % 90 % 1016,8 hPa 0,0 l/m 0,0 km/h (0 Bft) O 90 0 min 12,5 C 15,8 C 0,0 km/h (0 Bft)
07.07.2021 10:20 14,3 C 20,4 C 15,5 C 15,8 C 15,8 C 1,5 C 89 % 90 % 1016,8 hPa 0,0 l/m 0,0 km/h (0 Bft) O 90 0 min 12,5 C 15,8 C 0,0 km/h (0 Bft)
07.07.2021 10:25 14,5 C 20,5 C 15,5 C 15,9 C 15,9 C 1,4 C 89 % 90 % 1016,8 hPa 0,7 l/m 0,0 km/h (0 Bft) N-NO 22 0 min 12,7 C 15,9 C 0,0 km/h (0 Bft)
07.07.2021 10:30 14,4 C 20,5 C 15,5 C 15,8 C 15,8 C 1,4 C 89 % 90 % 1016,8 hPa 0,0 l/m 0,0 km/h (0 Bft) N-NO 22 0 min 12,6 C 15,8 C 0,0 km/h (0 Bft)
07.07.2021 10:35 14,4 C 20,4 C 15,5 C 15,8 C 15,8 C 1,4 C 89 % 90 % 1017,4 hPa 0,0 l/m 0,0 km/h (0 Bft) N-NO 22 0 min 12,6 C 15,8 C 0,0 km/h (0 Bft)
07.07.2021 10:40 14,5 C 20,5 C 15,5 C 15,8 C 15,8 C 1,3 C 89 % 90 % 1017,4 hPa 0,0 l/m 0,0 km/h (0 Bft) SO 135 0 min 12,7 C 15,8 C 0,0 km/h (0 Bft)
07.07.2021 10:45 14,5 C 20,5 C 15,5 C 15,8 C 15,8 C 1,3 C 89 % 90 % 1017,4 hPa 0,0 l/m 0,0 km/h (0 Bft) O-SO 112 0 min 12,7 C 15,8 C 0,0 km/h (0 Bft)
07.07.2021 10:50 14,4 C 20,5 C 15,4 C 15,9 C 15,9 C 1,5 C 89 % 90 % 1017,4 hPa 0,0 l/m 0,0 km/h (0 Bft) O-SO 112 0 min 12,6 C 15,9 C 0,0 km/h (0 Bft)
07.07.2021 10:55 14,7 C 20,5 C 15,6 C 16,2 C 16,2 C 1,5 C 89 % 90 % 1017,5 hPa 0,0 l/m 0,0 km/h (0 Bft) SO 135 0 min 12,9 C 16,2 C 0,0 km/h (0 Bft)
07.07.2021 11:00 14,7 C 20,5 C 15,6 C 16,3 C 16,3 C 1,6 C 89 % 90 % 1017,5 hPa 0,0 l/m 0,0 km/h (0 Bft) O-SO 112 0 min 12,9 C 16,3 C 0,0 km/h (0 Bft)
07.07.2021 11:05 14,8 C 20,5 C 15,8 C 16,9 C 16,9 C 2,1 C 89 % 90 % 1017,5 hPa 0,0 l/m 0,0 km/h (0 Bft) NO 45 0 min 13,0 C 16,9 C 0,0 km/h (0 Bft)
07.07.2021 11:10 14,7 C 20,5 C 15,7 C 16,7 C 16,7 C 2,0 C 89 % 90 % 1017,5 hPa 0,0 l/m 1,0 km/h (0 Bft) NO 45 0 min 12,9 C 16,7 C 2,1 km/h (1 Bft)
07.07.2021 11:15 14,5 C 20,5 C 15,7 C 16,4 C 16,4 C 1,9 C 89 % 90 % 1017,3 hPa 0,0 l/m 1,6 km/h (1 Bft) O-NO 67 0 min 12,7 C 16,4 C 2,1 km/h (1 Bft)
07.07.2021 11:20 14,7 C 20,5 C 15,8 C 16,4 C 16,4 C 1,7 C 89 % 90 % 1017,3 hPa 0,0 l/m 1,1 km/h (1 Bft) NO 45 0 min 12,9 C 16,4 C 0,0 km/h (0 Bft)
07.07.2021 11:25 14,8 C 20,6 C 16,0 C 16,8 C 16,8 C 2,0 C 89 % 90 % 1017,3 hPa 0,0 l/m 0,3 km/h (0 Bft) N-NO 22 0 min 13,0 C 16,8 C 0,0 km/h (0 Bft)
07.07.2021 11:30 15,1 C 20,6 C 16,1 C 17,1 C 17,1 C 2,0 C 89 % 90 % 1017,3 hPa 0,0 l/m 0,0 km/h (0 Bft) S-SO 157 0 min 13,3 C 17,1 C 0,0 km/h (0 Bft)
07.07.2021 11:35 15,3 C 20,6 C 16,2 C 17,3 C 17,3 C 2,0 C 89 % 90 % 1017,8 hPa 0,0 l/m 0,0 km/h (0 Bft) S-SO 157 0 min 13,5 C 17,3 C 0,0 km/h (0 Bft)
07.07.2021 11:40 15,3 C 20,6 C 16,3 C 17,5 C 17,5 C 2,2 C 89 % 90 % 1017,8 hPa 0,0 l/m 0,0 km/h (0 Bft) S-SO 157 0 min 13,5 C 17,5 C 0,0 km/h (0 Bft)
07.07.2021 11:45 15,3 C 20,6 C 16,1 C 17,6 C 17,6 C 2,3 C 89 % 90 % 1017,8 hPa 0,0 l/m 0,0 km/h (0 Bft) O-SO 112 0 min 13,5 C 17,6 C 0,0 km/h (0 Bft)
07.07.2021 11:50 15,3 C 20,6 C 16,3 C 17,8 C 17,8 C 2,5 C 89 % 90 % 1017,8 hPa 0,0 l/m 0,0 km/h (0 Bft) O-SO 112 0 min 13,5 C 17,8 C 0,0 km/h (0 Bft)
07.07.2021 11:55 15,5 C 20,6 C 16,4 C 18,3 C 18,3 C 2,8 C 89 % 90 % 1017,9 hPa 0,0 l/m 0,0 km/h (0 Bft) SO 135 0 min 13,7 C 18,3 C 0,0 km/h (0 Bft)
07.07.2021 12:00 15,7 C 20,6 C 16,5 C 18,9 C 18,9 C 3,2 C 89 % 90 % 1017,9 hPa 0,0 l/m 0,0 km/h (0 Bft) SO 135 0 min 13,9 C 18,9 C 0,0 km/h (0 Bft)
07.07.2021 12:05 15,4 C 20,6 C 16,5 C 19,3 C 19,3 C 3,9 C 89 % 90 % 1017,9 hPa 0,0 l/m 0,2 km/h (0 Bft) NO 45 5 min 13,6 C 19,3 C 0,0 km/h (0 Bft)
07.07.2021 12:10 15,5 C 20,6 C 16,4 C 19,7 C 19,7 C 4,2 C 89 % 91 % 1017,9 hPa 0,0 l/m 0,2 km/h (0 Bft) NO 45 5 min 13,7 C 19,7 C 0,0 km/h (0 Bft)
07.07.2021 12:15 15,7 C 20,7 C 16,6 C 20,4 C 20,4 C 4,7 C 89 % 91 % 1017,9 hPa 0,0 l/m 0,3 km/h (0 Bft) NO 45 5 min 13,9 C 20,4 C 3,1 km/h (1 Bft)
07.07.2021 12:20 15,5 C 20,7 C 16,5 C 20,3 C 20,3 C 4,8 C 89 % 91 % 1017,9 hPa 0,0 l/m 1,0 km/h (0 Bft) O-NO 67 5 min 13,7 C 20,3 C 2,1 km/h (1 Bft)
07.07.2021 12:25 15,5 C 20,7 C 16,7 C 20,2 C 20,2 C 4,7 C 89 % 91 % 1017,9 hPa 0,0 l/m 1,9 km/h (1 Bft) O-NO 67 5 min 13,7 C 20,2 C 4,5 km/h (1 Bft)
07.07.2021 12:30 15,6 C 20,7 C 16,9 C 20,4 C 20,4 C 4,8 C 89 % 90 % 1017,9 hPa 0,0 l/m 1,3 km/h (1 Bft) O-NO 67 5 min 13,8 C 20,4 C 0,0 km/h (0 Bft)
07.07.2021 12:35 15,9 C 20,7 C 17,1 C 21,4 C 21,4 C 5,5 C 89 % 91 % 1018,1 hPa 0,0 l/m 0,6 km/h (0 Bft) O-NO 67 5 min 14,1 C 21,4 C 0,0 km/h (0 Bft)
07.07.2021 12:40 16,3 C 20,7 C 17,2 C 22,1 C 22,1 C 5,8 C 89 % 91 % 1018,1 hPa 0,0 l/m 0,2 km/h (0 Bft) S-SO 157 5 min 14,5 C 22,1 C 0,0 km/h (0 Bft)
07.07.2021 12:45 16,6 C 20,7 C 17,3 C 22,3 C 22,3 C 5,7 C 89 % 91 % 1018,1 hPa 0,0 l/m 0,0 km/h (0 Bft) NO 45 5 min 14,8 C 22,3 C 0,0 km/h (0 Bft)
07.07.2021 12:50 16,6 C 20,7 C 17,3 C 22,2 C 22,2 C 5,6 C 89 % 91 % 1018,1 hPa 0,0 l/m 0,2 km/h (0 Bft) O-SO 112 5 min 14,8 C 22,2 C 1,8 km/h (1 Bft)
07.07.2021 12:55 16,5 C 20,7 C 17,3 C 21,8 C 21,8 C 5,3 C 89 % 91 % 1017,9 hPa 0,0 l/m 0,3 km/h (0 Bft) O-NO 67 5 min 14,7 C 21,8 C 0,0 km/h (0 Bft)
07.07.2021 13:00 16,6 C 20,7 C 17,4 C 22,0 C 22,0 C 5,4 C 89 % 91 % 1017,9 hPa 0,0 l/m 0,3 km/h (0 Bft) N-NO 22 5 min 14,8 C 22,0 C 0,0 km/h (0 Bft)
07.07.2021 13:05 16,9 C 20,8 C 17,8 C 23,4 C 23,4 C 6,5 C 89 % 91 % 1017,9 hPa 0,0 l/m 0,3 km/h (0 Bft) NO 45 5 min 15,1 C 23,4 C 0,0 km/h (0 Bft)
07.07.2021 13:10 17,1 C 20,8 C 17,8 C 24,0 C 24,0 C 6,9 C 89 % 91 % 1017,9 hPa 0,0 l/m 0,3 km/h (0 Bft) W-SW 247 5 min 15,3 C 24,0 C 0,0 km/h (0 Bft)
07.07.2021 13:15 17,3 C 20,8 C 17,8 C 24,5 C 24,5 C 7,2 C 89 % 91 % 1018,1 hPa 0,0 l/m 0,0 km/h (0 Bft) W-SW 247 5 min 15,5 C 24,5 C 0,0 km/h (0 Bft)
07.07.2021 13:20 17,0 C 20,8 C 17,7 C 24,3 C 24,3 C 7,3 C 89 % 92 % 1018,1 hPa 0,0 l/m 0,2 km/h (0 Bft) NO 45 5 min 15,2 C 24,3 C 0,0 km/h (0 Bft)
07.07.2021 13:25 17,1 C 20,8 C 17,9 C 24,1 C 24,1 C 7,0 C 89 % 91 % 1018,1 hPa 0,0 l/m 0,2 km/h (0 Bft) SW 225 5 min 15,3 C 24,1 C 0,0 km/h (0 Bft)
07.07.2021 13:30 17,2 C 20,8 C 18,0 C 24,3 C 24,3 C 7,1 C 89 % 91 % 1018,1 hPa 0,0 l/m 0,0 km/h (0 Bft) SW 225 5 min 15,4 C 24,3 C 0,0 km/h (0 Bft)
07.07.2021 13:35 17,2 C 20,8 C 17,8 C 24,2 C 24,2 C 7,0 C 89 % 92 % 1018,4 hPa 0,0 l/m 0,0 km/h (0 Bft) W 270 5 min 15,4 C 24,2 C 1,6 km/h (1 Bft)
07.07.2021 13:40 17,3 C 20,8 C 17,9 C 24,1 C 24,1 C 6,8 C 88 % 92 % 1018,4 hPa 0,0 l/m 0,2 km/h (0 Bft) W 270 5 min 15,3 C 24,1 C 0,0 km/h (0 Bft)
07.07.2021 13:45 17,3 C 20,8 C 17,9 C 24,2 C 24,2 C 6,9 C 88 % 92 % 1018,4 hPa 0,0 l/m 0,2 km/h (0 Bft) W 270 5 min 15,3 C 24,2 C 0,0 km/h (0 Bft)
07.07.2021 13:50 17,3 C 20,8 C 18,2 C 24,7 C 24,7 C 7,4 C 88 % 92 % 1018,4 hPa 0,0 l/m 1,0 km/h (0 Bft) NO 45 5 min 15,3 C 24,7 C 3,5 km/h (1 Bft)
07.07.2021 13:55 17,2 C 20,8 C 18,2 C 25,4 C 25,4 C 8,2 C 88 % 93 % 1017,9 hPa 0,0 l/m 1,9 km/h (1 Bft) O-NO 67 5 min 15,2 C 25,4 C 5,8 km/h (2 Bft)
07.07.2021 14:00 17,2 C 20,8 C 18,0 C 25,4 C 25,4 C 8,2 C 88 % 93 % 1017,9 hPa 0,0 l/m 2,1 km/h (1 Bft) O 90 5 min 15,2 C 25,4 C 4,7 km/h (1 Bft)
07.07.2021 14:05 17,3 C 20,8 C 18,1 C 24,9 C 24,9 C 7,6 C 88 % 93 % 1017,9 hPa 0,0 l/m 1,3 km/h (1 Bft) O-NO 67 5 min 15,3 C 24,9 C 1,9 km/h (1 Bft)
07.07.2021 14:10 17,4 C 20,8 C 18,5 C 25,1 C 25,1 C 7,7 C 87 % 93 % 1017,9 hPa 0,0 l/m 2,1 km/h (1 Bft) NO 45 5 min 15,2 C 25,1 C 5,0 km/h (1 Bft)
07.07.2021 14:15 17,9 C 20,8 C 18,6 C 25,0 C 25,0 C 7,1 C 87 % 93 % 1018,2 hPa 0,0 l/m 2,6 km/h (1 Bft) O-NO 67 5 min 15,7 C 25,0 C 6,9 km/h (2 Bft)
07.07.2021 14:20 18,1 C 20,9 C 18,7 C 24,8 C 24,8 C 6,7 C 87 % 93 % 1018,2 hPa 0,0 l/m 2,7 km/h (1 Bft) O-NO 67 5 min 15,9 C 24,8 C 5,3 km/h (1 Bft)
07.07.2021 14:25 18,4 C 20,9 C 18,6 C 24,4 C 24,4 C 6,0 C 87 % 93 % 1018,2 hPa 0,0 l/m 2,1 km/h (1 Bft) O-NO 67 5 min 16,2 C 24,4 C 5,3 km/h (1 Bft)
07.07.2021 14:30 18,7 C 20,9 C 18,7 C 24,1 C 24,1 C 5,4 C 87 % 93 % 1018,2 hPa 0,0 l/m 2,4 km/h (1 Bft) O-SO 112 5 min 16,5 C 24,1 C 1,8 km/h (1 Bft)
07.07.2021 14:35 18,9 C 20,9 C 19,0 C 24,7 C 24,7 C 5,8 C 86 % 93 % 1018,2 hPa 0,0 l/m 1,9 km/h (1 Bft) O-NO 67 5 min 16,5 C 24,7 C 1,8 km/h (1 Bft)
07.07.2021 14:40 19,1 C 20,9 C 19,2 C 25,6 C 25,6 C 6,5 C 86 % 93 % 1018,2 hPa 0,0 l/m 1,1 km/h (1 Bft) O-NO 67 5 min 16,7 C 25,6 C 2,7 km/h (1 Bft)
07.07.2021 14:45 19,3 C 20,8 C 19,5 C 26,7 C 26,7 C 7,4 C 87 % 93 % 1018,2 hPa 0,0 l/m 0,6 km/h (0 Bft) NO 45 5 min 17,1 C 26,7 C 0,0 km/h (0 Bft)
07.07.2021 14:50 19,6 C 20,9 C 19,5 C 27,1 C 27,1 C 7,5 C 86 % 93 % 1018,2 hPa 0,0 l/m 1,1 km/h (1 Bft) O-NO 67 5 min 17,2 C 27,1 C 2,7 km/h (1 Bft)
07.07.2021 14:55 19,9 C 20,7 C 19,8 C 27,3 C 27,3 C 7,4 C 86 % 92 % 1018,1 hPa 0,0 l/m 0,8 km/h (0 Bft) W-SW 247 5 min 17,5 C 27,3 C 0,0 km/h (0 Bft)
07.07.2021 15:00 20,1 C 20,7 C 19,9 C 27,6 C 27,6 C 7,5 C 86 % 92 % 1018,1 hPa 0,0 l/m 0,2 km/h (0 Bft) SW 225 5 min 17,7 C 27,6 C 0,0 km/h (0 Bft)
07.07.2021 15:05 20,3 C 20,8 C 20,0 C 27,4 C 27,4 C 7,1 C 86 % 92 % 1018,1 hPa 0,0 l/m 0,3 km/h (0 Bft) S 180 5 min 17,9 C 27,4 C 0,0 km/h (0 Bft)
07.07.2021 15:10 20,4 C 20,7 C 20,0 C 27,4 C 27,4 C 7,0 C 86 % 92 % 1018,1 hPa 0,0 l/m 0,5 km/h (0 Bft) W 270 5 min 18,0 C 27,4 C 8,2 km/h (2 Bft)
07.07.2021 15:15 20,5 C 20,7 C 20,0 C 26,6 C 26,6 C 6,1 C 84 % 92 % 1018,3 hPa 0,0 l/m 0,6 km/h (0 Bft) W-NW 292 5 min 17,7 C 26,6 C 0,0 km/h (0 Bft)
07.07.2021 15:20 20,6 C 20,9 C 20,1 C 26,9 C 26,9 C 6,3 C 85 % 92 % 1018,3 hPa 0,0 l/m 0,8 km/h (0 Bft) SO 135 5 min 18,0 C 26,9 C 2,1 km/h (1 Bft)
07.07.2021 15:25 20,5 C 20,9 C 20,2 C 26,7 C 26,7 C 6,2 C 83 % 92 % 1018,3 hPa 0,0 l/m 1,3 km/h (1 Bft) O-NO 67 5 min 17,5 C 26,7 C 0,0 km/h (0 Bft)
07.07.2021 15:30 20,5 C 20,9 C 20,2 C 26,4 C 26,4 C 5,9 C 83 % 92 % 1018,3 hPa 0,0 l/m 1,6 km/h (1 Bft) O 90 5 min 17,5 C 26,4 C 0,0 km/h (0 Bft)
07.07.2021 15:35 20,7 C 20,9 C 20,2 C 26,2 C 26,2 C 5,5 C 83 % 92 % 1018,4 hPa 0,0 l/m 0,3 km/h (0 Bft) N-NW 337 5 min 17,7 C 26,2 C 0,0 km/h (0 Bft)
07.07.2021 15:40 20,7 C 20,8 C 20,2 C 25,9 C 25,9 C 5,2 C 83 % 92 % 1018,4 hPa 0,0 l/m 0,0 km/h (0 Bft) O 90 5 min 17,7 C 25,9 C 0,0 km/h (0 Bft)
07.07.2021 15:45 20,6 C 20,9 C 20,3 C 25,6 C 25,6 C 5,0 C 82 % 92 % 1018,4 hPa 0,0 l/m 0,6 km/h (0 Bft) O-NO 67 5 min 17,4 C 25,6 C 0,0 km/h (0 Bft)
07.07.2021 15:50 20,9 C 20,7 C 20,5 C 26,0 C 26,0 C 5,1 C 83 % 92 % 1018,4 hPa 0,0 l/m 0,6 km/h (0 Bft) SW 225 5 min 17,9 C 26,0 C 0,0 km/h (0 Bft)
07.07.2021 15:55 20,9 C 20,8 C 20,5 C 26,5 C 26,5 C 5,6 C 82 % 92 % 1018,1 hPa 0,0 l/m 0,0 km/h (0 Bft) NO 45 5 min 17,7 C 26,5 C 0,0 km/h (0 Bft)
07.07.2021 16:00 20,8 C 20,8 C 20,5 C 26,5 C 26,5 C 5,7 C 82 % 92 % 1018,1 hPa 0,0 l/m 0,2 km/h (0 Bft) NO 45 5 min 17,6 C 26,5 C 2,1 km/h (1 Bft)
07.07.2021 16:05 21,0 C 20,6 C 20,8 C 27,8 C 27,8 C 6,8 C 82 % 93 % 1018,1 hPa 0,0 l/m 0,3 km/h (0 Bft) SW 225 5 min 17,8 C 27,8 C 0,0 km/h (0 Bft)
07.07.2021 16:10 21,0 C 20,7 C 20,7 C 28,6 C 28,6 C 7,6 C 81 % 92 % 1018,1 hPa 0,0 l/m 0,6 km/h (0 Bft) N-NO 22 5 min 17,6 C 28,6 C 2,4 km/h (1 Bft)
07.07.2021 16:15 21,1 C 20,6 C 20,9 C 28,1 C 28,1 C 7,0 C 80 % 92 % 1018,1 hPa 0,0 l/m 0,8 km/h (0 Bft) W-NW 292 5 min 17,5 C 28,1 C 0,0 km/h (0 Bft)
07.07.2021 16:20 21,3 C 20,7 C 21,1 C 29,3 C 29,3 C 8,0 C 80 % 92 % 1018,1 hPa 0,0 l/m 0,8 km/h (0 Bft) O-NO 67 5 min 17,7 C 29,3 C 2,1 km/h (1 Bft)
07.07.2021 16:25 21,2 C 20,7 C 21,0 C 29,5 C 29,5 C 8,3 C 79 % 92 % 1018,1 hPa 0,0 l/m 0,8 km/h (0 Bft) O 90 5 min 17,4 C 29,5 C 0,0 km/h (0 Bft)
07.07.2021 16:30 21,3 C 20,6 C 21,0 C 29,9 C 29,9 C 8,6 C 79 % 92 % 1018,1 hPa 0,0 l/m 0,8 km/h (0 Bft) W-NW 292 5 min 17,5 C 29,9 C 2,1 km/h (1 Bft)
07.07.2021 16:35 21,5 C 20,5 C 21,2 C 29,9 C 29,9 C 8,4 C 78 % 91 % 1018,1 hPa 0,0 l/m 1,3 km/h (1 Bft) S 180 5 min 17,5 C 29,9 C 9,5 km/h (2 Bft)
07.07.2021 16:40 21,6 C 20,5 C 21,2 C 30,2 C 30,2 C 8,6 C 78 % 92 % 1018,1 hPa 0,0 l/m 1,6 km/h (1 Bft) SW 225 5 min 17,6 C 30,2 C 1,6 km/h (1 Bft)
07.07.2021 16:45 21,7 C 20,5 C 21,0 C 29,4 C 29,4 C 7,7 C 77 % 92 % 1018,1 hPa 0,0 l/m 0,6 km/h (0 Bft) S 180 5 min 17,5 C 29,4 C 0,0 km/h (0 Bft)
07.07.2021 16:50 21,5 C 20,5 C 20,9 C 28,8 C 28,8 C 7,3 C 77 % 91 % 1018,1 hPa 0,0 l/m 0,5 km/h (0 Bft) O 90 5 min 17,3 C 28,8 C 0,0 km/h (0 Bft)
07.07.2021 16:55 21,3 C 20,5 C 20,8 C 28,1 C 28,1 C 6,8 C 76 % 91 % 1018,1 hPa 0,0 l/m 0,2 km/h (0 Bft) NO 45 5 min 16,9 C 28,1 C 0,0 km/h (0 Bft)
07.07.2021 17:00 21,4 C 20,5 C 20,8 C 28,4 C 28,4 C 7,0 C 77 % 91 % 1018,1 hPa 0,0 l/m 0,3 km/h (0 Bft) O-NO 67 5 min 17,2 C 28,4 C 0,0 km/h (0 Bft)
07.07.2021 17:05 21,3 C 20,5 C 20,9 C 28,1 C 28,1 C 6,8 C 76 % 91 % 1018,1 hPa 0,0 l/m 1,3 km/h (1 Bft) NO 45 5 min 16,9 C 28,1 C 3,1 km/h (1 Bft)
07.07.2021 17:10 21,5 C 20,4 C 21,0 C 28,4 C 28,4 C 6,9 C 76 % 91 % 1018,1 hPa 0,0 l/m 1,4 km/h (1 Bft) SW 225 5 min 17,1 C 28,4 C 0,0 km/h (0 Bft)
07.07.2021 17:15 21,7 C 20,5 C 21,1 C 29,9 C 29,9 C 8,2 C 76 % 91 % 1017,9 hPa 0,0 l/m 0,3 km/h (0 Bft) O-NO 67 5 min 17,3 C 29,9 C 0,0 km/h (0 Bft)
07.07.2021 17:20 21,8 C 20,5 C 21,2 C 30,4 C 30,4 C 8,6 C 75 % 90 % 1017,9 hPa 0,0 l/m 0,5 km/h (0 Bft) O-NO 67 5 min 17,2 C 30,4 C 0,0 km/h (0 Bft)
07.07.2021 17:25 21,8 C 20,5 C 21,2 C 30,3 C 30,3 C 8,5 C 75 % 90 % 1017,9 hPa 0,0 l/m 0,6 km/h (0 Bft) O-NO 67 5 min 17,2 C 30,3 C 4,2 km/h (1 Bft)
07.07.2021 17:30 21,9 C 20,5 C 21,3 C 29,9 C 29,9 C 8,0 C 74 % 89 % 1017,9 hPa 0,0 l/m 1,1 km/h (1 Bft) O-NO 67 5 min 17,0 C 29,9 C 2,4 km/h (1 Bft)
07.07.2021 17:35 22,0 C 20,5 C 21,4 C 29,5 C 29,5 C 7,5 C 73 % 89 % 1018,1 hPa 0,0 l/m 2,1 km/h (1 Bft) NW 315 5 min 16,9 C 29,5 C 0,0 km/h (0 Bft)
07.07.2021 17:40 22,2 C 20,5 C 21,5 C 30,1 C 30,1 C 7,9 C 74 % 90 % 1018,1 hPa 0,0 l/m 1,1 km/h (1 Bft) W-NW 292 5 min 17,3 C 30,1 C 1,6 km/h (1 Bft)
07.07.2021 17:45 22,2 C 20,5 C 21,5 C 30,5 C 30,5 C 8,3 C 73 % 89 % 1018,1 hPa 0,0 l/m 0,5 km/h (0 Bft) O-NO 67 5 min 17,1 C 30,5 C 0,0 km/h (0 Bft)
07.07.2021 17:50 22,3 C 20,5 C 21,5 C 30,4 C 30,4 C 8,1 C 72 % 87 % 1018,1 hPa 0,0 l/m 1,3 km/h (1 Bft) NO 45 5 min 17,0 C 30,4 C 1,8 km/h (1 Bft)
07.07.2021 17:55 22,4 C 20,5 C 21,4 C 29,6 C 29,6 C 7,2 C 73 % 89 % 1018,0 hPa 0,0 l/m 1,0 km/h (0 Bft) O-NO 67 5 min 17,3 C 29,6 C 0,0 km/h (0 Bft)
07.07.2021 18:00 22,4 C 20,5 C 21,3 C 28,4 C 28,4 C 6,0 C 73 % 89 % 1018,0 hPa 0,0 l/m 0,5 km/h (0 Bft) O-NO 67 5 min 17,3 C 28,4 C 2,4 km/h (1 Bft)
07.07.2021 18:05 22,4 C 20,6 C 21,1 C 26,8 C 26,8 C 4,4 C 74 % 89 % 1018,0 hPa 0,0 l/m 0,3 km/h (0 Bft) O-NO 67 5 min 17,5 C 26,8 C 0,0 km/h (0 Bft)
07.07.2021 18:10 22,4 C 20,5 C 21,1 C 25,9 C 25,9 C 3,5 C 73 % 89 % 1018,0 hPa 0,0 l/m 0,3 km/h (0 Bft) O-NO 67 5 min 17,3 C 25,9 C 0,0 km/h (0 Bft)
07.07.2021 18:15 22,3 C 20,5 C 20,9 C 24,9 C 24,9 C 2,6 C 73 % 88 % 1017,9 hPa 0,0 l/m 0,0 km/h (0 Bft) O-NO 67 0 min 17,2 C 24,9 C 0,0 km/h (0 Bft)
07.07.2021 18:20 22,3 C 20,6 C 20,9 C 24,7 C 24,7 C 2,4 C 73 % 89 % 1017,9 hPa 0,0 l/m 0,0 km/h (0 Bft) O-NO 67 0 min 17,2 C 24,7 C 0,0 km/h (0 Bft)
07.07.2021 18:25 22,1 C 20,5 C 20,8 C 24,2 C 24,2 C 2,1 C 73 % 88 % 1017,9 hPa 0,0 l/m 0,0 km/h (0 Bft) O-NO 67 0 min 17,0 C 24,2 C 0,0 km/h (0 Bft)
07.07.2021 18:30 22,1 C 20,6 C 20,8 C 24,0 C 24,0 C 1,9 C 74 % 88 % 1017,9 hPa 0,0 l/m 0,0 km/h (0 Bft) O-NO 67 0 min 17,2 C 24,0 C 0,0 km/h (0 Bft)
07.07.2021 18:35 22,0 C 20,6 C 20,7 C 23,8 C 23,8 C 1,8 C 74 % 88 % 1018,2 hPa 0,0 l/m 0,0 km/h (0 Bft) O-NO 67 0 min 17,1 C 23,8 C 0,0 km/h (0 Bft)
07.07.2021 18:40 22,0 C 20,6 C 20,7 C 23,8 C 23,8 C 1,8 C 74 % 88 % 1018,2 hPa 0,0 l/m 0,0 km/h (0 Bft) NW 315 0 min 17,1 C 23,8 C 0,0 km/h (0 Bft)
07.07.2021 18:45 22,1 C 20,6 C 20,7 C 24,3 C 24,3 C 2,2 C 75 % 88 % 1018,2 hPa 0,0 l/m 0,3 km/h (0 Bft) W-NW 292 0 min 17,5 C 24,3 C 3,2 km/h (1 Bft)
07.07.2021 18:50 22,1 C 20,6 C 20,7 C 24,2 C 24,2 C 2,1 C 74 % 88 % 1018,2 hPa 0,0 l/m 0,3 km/h (0 Bft) NW 315 0 min 17,2 C 24,2 C 0,0 km/h (0 Bft)
07.07.2021 18:55 22,0 C 20,6 C 20,6 C 23,7 C 23,7 C 1,7 C 74 % 87 % 1018,1 hPa 0,0 l/m 0,3 km/h (0 Bft) NW 315 0 min 17,1 C 23,7 C 1,6 km/h (1 Bft)
07.07.2021 19:00 22,0 C 20,6 C 20,6 C 23,7 C 23,7 C 1,7 C 74 % 88 % 1018,1 hPa 0,0 l/m 0,2 km/h (0 Bft) NW 315 0 min 17,1 C 23,7 C 0,0 km/h (0 Bft)
07.07.2021 19:05 22,0 C 20,7 C 20,8 C 23,9 C 23,9 C 1,9 C 75 % 87 % 1018,1 hPa 0,0 l/m 1,4 km/h (1 Bft) O-NO 67 0 min 17,4 C 23,9 C 5,1 km/h (1 Bft)
07.07.2021 19:10 21,9 C 20,7 C 20,7 C 23,8 C 23,8 C 1,9 C 76 % 88 % 1018,1 hPa 0,0 l/m 2,4 km/h (1 Bft) O-NO 67 0 min 17,5 C 23,8 C 2,3 km/h (1 Bft)
07.07.2021 19:15 21,9 C 20,8 C 20,7 C 23,2 C 23,2 C 1,3 C 76 % 88 % 1018,6 hPa 0,0 l/m 2,9 km/h (1 Bft) O-NO 67 0 min 17,5 C 23,2 C 0,0 km/h (0 Bft)
07.07.2021 19:20 21,9 C 20,8 C 20,8 C 23,1 C 23,1 C 1,2 C 77 % 87 % 1018,6 hPa 0,0 l/m 1,9 km/h (1 Bft) N-NO 22 0 min 17,7 C 23,1 C 0,0 km/h (0 Bft)
07.07.2021 19:25 21,9 C 20,8 C 20,9 C 24,1 C 24,1 C 2,2 C 78 % 88 % 1018,6 hPa 0,0 l/m 0,3 km/h (0 Bft) NO 45 0 min 17,9 C 24,1 C 1,6 km/h (1 Bft)
07.07.2021 19:30 21,9 C 20,8 C 20,9 C 25,2 C 25,2 C 3,3 C 76 % 88 % 1018,6 hPa 0,0 l/m 0,6 km/h (0 Bft) NO 45 5 min 17,5 C 25,2 C 0,0 km/h (0 Bft)
07.07.2021 19:35 21,9 C 20,8 C 20,9 C 26,1 C 26,1 C 4,2 C 77 % 88 % 1018,2 hPa 0,0 l/m 1,3 km/h (1 Bft) O-NO 67 5 min 17,7 C 26,1 C 1,6 km/h (1 Bft)
07.07.2021 19:40 21,9 C 20,8 C 20,8 C 26,4 C 26,4 C 4,5 C 77 % 87 % 1018,2 hPa 0,0 l/m 0,8 km/h (0 Bft) N-NO 22 5 min 17,7 C 26,4 C 2,3 km/h (1 Bft)
07.07.2021 19:45 21,8 C 20,8 C 20,8 C 26,5 C 26,5 C 4,7 C 77 % 87 % 1018,2 hPa 0,0 l/m 1,1 km/h (1 Bft) NO 45 5 min 17,6 C 26,5 C 0,0 km/h (0 Bft)
07.07.2021 19:50 21,8 C 20,8 C 20,7 C 26,6 C 26,6 C 4,8 C 77 % 87 % 1018,2 hPa 0,0 l/m 1,3 km/h (1 Bft) NO 45 5 min 17,6 C 26,6 C 2,1 km/h (1 Bft)
07.07.2021 19:55 21,8 C 20,9 C 20,7 C 26,3 C 26,3 C 4,5 C 76 % 87 % 1018,4 hPa 0,0 l/m 1,6 km/h (1 Bft) O-NO 67 5 min 17,4 C 26,3 C 0,0 km/h (0 Bft)
07.07.2021 20:00 21,7 C 20,9 C 20,7 C 26,1 C 26,1 C 4,4 C 76 % 87 % 1018,4 hPa 0,0 l/m 1,9 km/h (1 Bft) O-NO 67 5 min 17,3 C 26,1 C 0,0 km/h (0 Bft)
07.07.2021 20:05 21,6 C 20,9 C 20,5 C 26,1 C 26,1 C 4,5 C 77 % 87 % 1018,4 hPa 0,0 l/m 0,8 km/h (0 Bft) O-NO 67 5 min 17,4 C 26,1 C 1,6 km/h (1 Bft)
07.07.2021 20:10 21,6 C 20,9 C 20,5 C 26,0 C 26,0 C 4,4 C 76 % 87 % 1018,4 hPa 0,0 l/m 0,3 km/h (0 Bft) O-NO 67 5 min 17,2 C 26,0 C 1,6 km/h (1 Bft)
07.07.2021 20:15 21,5 C 21,0 C 20,3 C 25,5 C 25,5 C 4,0 C 77 % 87 % 1018,4 hPa 0,0 l/m 1,4 km/h (1 Bft) O-NO 67 5 min 17,3 C 25,5 C 4,5 km/h (1 Bft)
07.07.2021 20:20 21,4 C 21,0 C 20,2 C 24,4 C 24,4 C 3,0 C 77 % 87 % 1018,4 hPa 0,0 l/m 1,9 km/h (1 Bft) O-NO 67 5 min 17,2 C 24,4 C 2,7 km/h (1 Bft)
07.07.2021 20:25 21,2 C 21,0 C 20,1 C 22,9 C 22,9 C 1,7 C 77 % 87 % 1018,4 hPa 0,0 l/m 2,7 km/h (1 Bft) O 90 5 min 17,0 C 22,9 C 3,5 km/h (1 Bft)
07.07.2021 20:30 21,0 C 21,1 C 19,9 C 22,0 C 22,0 C 1,0 C 78 % 87 % 1018,4 hPa 0,0 l/m 3,4 km/h (1 Bft) O-NO 67 0 min 17,0 C 22,0 C 5,0 km/h (1 Bft)
07.07.2021 20:35 20,8 C 21,2 C 19,7 C 21,2 C 21,2 C 0,4 C 78 % 88 % 1018,4 hPa 0,0 l/m 3,7 km/h (1 Bft) O-NO 67 0 min 16,8 C 21,2 C 2,7 km/h (1 Bft)
07.07.2021 20:40 20,8 C 21,2 C 19,6 C 20,8 C 20,8 C 0,0 C 78 % 88 % 1018,4 hPa 0,0 l/m 3,7 km/h (1 Bft) NO 45 0 min 16,8 C 20,8 C 4,5 km/h (1 Bft)
07.07.2021 20:45 20,6 C 21,2 C 19,4 C 20,5 C 20,3 C 0,0 C 79 % 88 % 1018,4 hPa 0,0 l/m 3,5 km/h (1 Bft) O-NO 67 0 min 16,8 C 20,3 C 2,9 km/h (1 Bft)
07.07.2021 20:50 20,4 C 21,2 C 19,3 C 20,3 C 20,1 C 0,0 C 80 % 88 % 1018,4 hPa 0,0 l/m 3,2 km/h (1 Bft) O-NO 67 0 min 16,8 C 20,1 C 4,0 km/h (1 Bft)
07.07.2021 20:55 20,3 C 21,2 C 19,2 C 20,1 C 19,8 C 0,0 C 80 % 89 % 1018,6 hPa 0,0 l/m 2,6 km/h (1 Bft) O-NO 67 0 min 16,7 C 19,8 C 2,9 km/h (1 Bft)
07.07.2021 21:00 20,3 C 21,2 C 19,1 C 20,1 C 19,7 C 0,0 C 81 % 89 % 1018,6 hPa 0,0 l/m 2,1 km/h (1 Bft) O-NO 67 0 min 16,9 C 19,7 C 0,0 km/h (0 Bft)
07.07.2021 21:05 20,1 C 21,2 C 19,0 C 19,9 C 19,4 C 0,0 C 81 % 90 % 1018,6 hPa 0,0 l/m 0,8 km/h (0 Bft) O 90 0 min 16,7 C 19,4 C 0,0 km/h (0 Bft)
07.07.2021 21:10 20,1 C 21,2 C 18,9 C 19,8 C 19,3 C 0,0 C 82 % 90 % 1018,6 hPa 0,0 l/m 0,2 km/h (0 Bft) O 90 0 min 16,9 C 19,3 C 2,1 km/h (1 Bft)
07.07.2021 21:15 19,9 C 21,3 C 18,8 C 19,7 C 19,2 C 0,0 C 82 % 90 % 1018,8 hPa 0,0 l/m 0,3 km/h (0 Bft) O-NO 67 0 min 16,7 C 19,2 C 1,6 km/h (1 Bft)
07.07.2021 21:20 19,9 C 21,3 C 18,7 C 19,6 C 19,1 C 0,0 C 82 % 90 % 1018,8 hPa 0,0 l/m 0,6 km/h (0 Bft) O-NO 67 0 min 16,7 C 19,1 C 1,9 km/h (1 Bft)
07.07.2021 21:25 19,6 C 21,3 C 18,7 C 19,4 C 19,0 C 0,0 C 83 % 90 % 1018,8 hPa 0,0 l/m 1,1 km/h (1 Bft) O-NO 67 0 min 16,6 C 19,0 C 2,4 km/h (1 Bft)
07.07.2021 21:30 19,7 C 21,3 C 18,6 C 19,4 C 18,9 C 0,0 C 83 % 91 % 1018,8 hPa 0,0 l/m 0,6 km/h (0 Bft) NO 45 0 min 16,7 C 18,9 C 0,0 km/h (0 Bft)
07.07.2021 21:35 19,5 C 21,3 C 18,5 C 19,2 C 18,7 C 0,0 C 83 % 90 % 1018,9 hPa 0,0 l/m 0,3 km/h (0 Bft) O-NO 67 0 min 16,5 C 18,7 C 1,6 km/h (1 Bft)
07.07.2021 21:40 19,5 C 21,3 C 18,4 C 19,2 C 18,6 C 0,0 C 84 % 90 % 1018,9 hPa 0,0 l/m 0,3 km/h (0 Bft) O-NO 67 0 min 16,7 C 18,6 C 0,0 km/h (0 Bft)
07.07.2021 21:45 19,3 C 21,3 C 18,3 C 19,0 C 18,4 C 0,0 C 84 % 90 % 1018,9 hPa 0,0 l/m 0,2 km/h (0 Bft) O-NO 67 0 min 16,5 C 18,4 C 0,0 km/h (0 Bft)
07.07.2021 21:50 19,2 C 21,3 C 18,3 C 18,9 C 18,3 C 0,0 C 84 % 91 % 1018,9 hPa 0,0 l/m 0,0 km/h (0 Bft) O-NO 67 0 min 16,4 C 18,3 C 0,0 km/h (0 Bft)
07.07.2021 21:55 19,1 C 21,3 C 18,2 C 18,8 C 18,2 C 0,0 C 84 % 91 % 1018,9 hPa 0,0 l/m 0,0 km/h (0 Bft) N-NO 22 0 min 16,3 C 18,2 C 0,0 km/h (0 Bft)
07.07.2021 22:00 19,1 C 21,3 C 18,1 C 18,8 C 18,1 C 0,0 C 85 % 91 % 1018,9 hPa 0,0 l/m 0,0 km/h (0 Bft) N-NO 22 0 min 16,5 C 18,1 C 0,0 km/h (0 Bft)
07.07.2021 22:05 19,1 C 21,3 C 18,1 C 18,7 C 18,0 C 0,0 C 85 % 91 % 1018,9 hPa 0,0 l/m 0,0 km/h (0 Bft) N-NO 22 0 min 16,5 C 18,0 C 0,0 km/h (0 Bft)
07.07.2021 22:10 19,0 C 21,3 C 18,0 C 18,6 C 17,9 C 0,0 C 84 % 91 % 1018,9 hPa 0,0 l/m 0,0 km/h (0 Bft) N-NO 22 0 min 16,2 C 17,9 C 0,0 km/h (0 Bft)
07.07.2021 22:15 18,8 C 21,3 C 18,0 C 18,5 C 17,8 C 0,0 C 84 % 91 % 1019,1 hPa 0,0 l/m 0,0 km/h (0 Bft) N-NO 22 0 min 16,0 C 17,8 C 0,0 km/h (0 Bft)
07.07.2021 22:20 18,9 C 21,3 C 17,9 C 18,5 C 17,6 C 0,0 C 84 % 91 % 1019,1 hPa 0,0 l/m 0,0 km/h (0 Bft) N-NO 22 0 min 16,1 C 17,6 C 0,0 km/h (0 Bft)
07.07.2021 22:25 18,7 C 21,3 C 17,9 C 18,3 C 17,6 C 0,0 C 84 % 92 % 1019,1 hPa 0,0 l/m 0,0 km/h (0 Bft) N-NO 22 0 min 15,9 C 17,6 C 0,0 km/h (0 Bft)
07.07.2021 22:30 18,6 C 21,3 C 17,8 C 18,2 C 17,5 C 0,0 C 85 % 92 % 1019,1 hPa 0,0 l/m 0,0 km/h (0 Bft) N-NO 22 0 min 16,0 C 17,5 C 0,0 km/h (0 Bft)
07.07.2021 22:35 18,6 C 21,3 C 17,8 C 18,2 C 17,4 C 0,0 C 85 % 92 % 1019,1 hPa 0,0 l/m 0,0 km/h (0 Bft) N-NO 22 0 min 16,0 C 17,4 C 0,0 km/h (0 Bft)
07.07.2021 22:40 18,5 C 21,3 C 17,7 C 18,1 C 17,4 C 0,0 C 85 % 92 % 1019,1 hPa 0,0 l/m 0,0 km/h (0 Bft) N-NO 22 0 min 15,9 C 17,4 C 0,0 km/h (0 Bft)
07.07.2021 22:45 18,4 C 21,4 C 17,7 C 18,1 C 17,4 C 0,0 C 86 % 92 % 1019,1 hPa 0,0 l/m 0,0 km/h (0 Bft) N-NO 22 0 min 16,0 C 17,4 C 0,0 km/h (0 Bft)
07.07.2021 22:50 18,4 C 21,4 C 17,7 C 18,1 C 17,4 C 0,0 C 86 % 92 % 1019,1 hPa 0,0 l/m 0,0 km/h (0 Bft) N-NO 22 0 min 16,0 C 17,4 C 0,0 km/h (0 Bft)
07.07.2021 22:55 18,3 C 21,4 C 17,6 C 18,0 C 17,5 C 0,0 C 86 % 92 % 1019,1 hPa 0,0 l/m 0,0 km/h (0 Bft) O-NO 67 0 min 15,9 C 17,5 C 0,0 km/h (0 Bft)
07.07.2021 23:00 18,1 C 21,4 C 17,5 C 17,9 C 17,5 C 0,0 C 86 % 92 % 1019,1 hPa 0,0 l/m 0,0 km/h (0 Bft) O-NO 67 0 min 15,7 C 17,5 C 0,0 km/h (0 Bft)
07.07.2021 23:05 18,0 C 21,3 C 17,5 C 17,8 C 17,5 C 0,0 C 86 % 92 % 1019,1 hPa 0,0 l/m 0,0 km/h (0 Bft) O-NO 67 0 min 15,6 C 17,5 C 0,0 km/h (0 Bft)
07.07.2021 23:10 18,0 C 21,4 C 17,5 C 17,8 C 17,4 C 0,0 C 86 % 92 % 1019,1 hPa 0,0 l/m 0,0 km/h (0 Bft) N-NW 337 0 min 15,6 C 17,4 C 0,0 km/h (0 Bft)
07.07.2021 23:15 17,9 C 21,4 C 17,5 C 17,7 C 17,3 C 0,0 C 86 % 92 % 1018,9 hPa 0,0 l/m 0,0 km/h (0 Bft) N-NW 337 0 min 15,5 C 17,3 C 0,0 km/h (0 Bft)
07.07.2021 23:20 17,9 C 21,4 C 17,5 C 17,7 C 17,3 C 0,0 C 86 % 92 % 1018,9 hPa 0,0 l/m 0,0 km/h (0 Bft) N-NW 337 0 min 15,5 C 17,3 C 0,0 km/h (0 Bft)
07.07.2021 23:25 17,9 C 21,4 C 17,4 C 17,7 C 17,2 C 0,0 C 86 % 92 % 1018,9 hPa 0,0 l/m 0,0 km/h (0 Bft) N-NW 337 0 min 15,5 C 17,2 C 0,0 km/h (0 Bft)
07.07.2021 23:30 17,8 C 21,4 C 17,4 C 17,6 C 17,2 C 0,0 C 87 % 92 % 1018,9 hPa 0,0 l/m 0,0 km/h (0 Bft) N-NW 337 0 min 15,6 C 17,2 C 0,0 km/h (0 Bft)
07.07.2021 23:35 17,7 C 21,4 C 17,3 C 17,5 C 17,1 C 0,0 C 87 % 92 % 1018,9 hPa 0,0 l/m 0,0 km/h (0 Bft) N-NW 337 0 min 15,5 C 17,1 C 0,0 km/h (0 Bft)
07.07.2021 23:40 17,6 C 21,4 C 17,3 C 17,4 C 17,0 C 0,0 C 86 % 92 % 1018,9 hPa 0,0 l/m 0,0 km/h (0 Bft) N-NW 337 0 min 15,2 C 17,0 C 0,0 km/h (0 Bft)
07.07.2021 23:45 17,6 C 21,4 C 17,3 C 17,4 C 16,9 C 0,0 C 86 % 92 % 1018,9 hPa 0,0 l/m 0,0 km/h (0 Bft) N-NW 337 0 min 15,2 C 16,9 C 0,0 km/h (0 Bft)
07.07.2021 23:50 17,5 C 21,4 C 17,2 C 17,3 C 16,8 C 0,0 C 86 % 92 % 1018,9 hPa 0,0 l/m 0,0 km/h (0 Bft) N-NW 337 0 min 15,1 C 16,8 C 0,0 km/h (0 Bft)
07.07.2021 23:55 17,5 C 21,4 C 17,1 C 17,2 C 16,6 C 0,0 C 86 % 92 % 1018,6 hPa 0,0 l/m 0,0 km/h (0 Bft) N-NW 337 0 min 15,1 C 16,6 C 0,0 km/h (0 Bft)
_ Min-Zeit 08:20 06:15 06:35 05:50 05:50 00:00 17:50 17:50 00:00 - 00:00 - - - 08:20 05:50 00:00
Minimum _ 13,4 C 20,0 C 14,5 C 14,5 C 14,5 C 0,0 C 72 % 87 % 1012,9 hPa - 0,0 km/h (0 Bft) - - - 11,5 C 14,5 C 0,0 km/h (0 Bft)
_ Max-Zeit 17:55 22:45 17:40 17:45 17:45 16:30 09:00 13:55 22:15 00:05 20:35 - - 05:20 15:20 17:45 16:35
Maximum _ 22,4 C 21,4 C 21,5 C 30,5 C 30,5 C 8,6 C 89 % 93 % 1019,1 hPa 0,7 l/m 3,7 km/h
O-NO (1 Bft)
- - 5 min 18,0 C 30,5 C 9,5 km/h
S (2 Bft)
Durchschnitt _ 17,5 C 20,6 C 17,6 C 19,8 C 19,8 C 2,4 C 85 % 90 % 1016,7 hPa #16,5 l/m 0,4 km/h (0 Bft) O-NO - #7:25 h 14,9 C 19,8 C 0,7 km/h (0 Bft)
2021 www.wetterstation-wechselburg.de